Weather History for Novato, CA

Change the Weather History Date:

Saturday, June 29, 2013

  Actual Average (KAPC) Record (KAPC)
Temperature  
Mean Temperature 78 °F 66 °F  
Max Temperature 102 °F 79 °F 99 °F (2013)
Min Temperature 55 °F 52 °F 47 °F (2001)
Degree Days  
Heating Degree Days 0    
Month to date heating degree days  
Since 1 June heating degree days  
Since 1 July heating degree days  
Cooling Degree Days 14    
Month to date cooling degree days  
Year to date cooling degree days  
Since 1 June cooling degree days  
Growing Degree Days 28 (Base 50)    
Moisture  
Dew Point 56 °F    
Average Humidity 52    
Maximum Humidity 100    
Minimum Humidity 21    
Precipitation  
Precipitation 0.00 in - 0.80 in (1992)
Month to date precipitation  
Year to date precipitation  
Since 1 July precipitation  
Sea Level Pressure  
Sea Level Pressure 29.87 in    
Wind  
Wind Speed 4 mph (SE)    
Max Wind Speed 16 mph    
Max Gust Speed 22 mph    
Visibility 10 miles    
Events Rain    
T = Trace of Precipitation, MM = Missing Value Source: NWS Daily Summary

Daily Weather History Graph

Daily Weather History Graph

Search for Another Location

Airport:

Trip Planner

Search our weather history database for the weather conditions in past years. The results will help you decide how hot, cold, wet, or windy it might be!

Date:

Astronomy

Jun. 29, 2013 Rise Set
Actual Time 5:50 AM PDT 8:37 PM PDT
Civil Twilight 5:18 AM PDT 9:08 PM PDT
Nautical Twilight 4:39 AM PDT 9:48 PM PDT
Astronomical Twilight 3:54 AM PDT 10:32 PM PDT
Moon 12:15 AM PDT (6/29) 1:00 PM PDT (6/29)
Length of Visible Light 15h 50m
Length of Day
14h 47m
Waning Gibbous, 54% of the Moon is Illuminated
Jun 29
Waning Gibbous
Jun 29
Last Quarter
Jul 8
New
Jul 15
First Quarter
Jul 22
Full

Hourly Weather History & Observations

Time (PDT) Temp. Heat Index Dew Point Humidity Pressure Visibility Wind Dir Wind Speed Gust Speed Precip Events Conditions
12:15 AM 64.4 °F - 55.4 °F 73% 29.92 in 10.0 mi North 6.9 mph - N/A   Clear
12:35 AM 62.6 °F - 55.4 °F 77% 29.92 in 10.0 mi North 4.6 mph - N/A   Clear
12:55 AM 62.6 °F - 55.4 °F 77% 29.91 in 10.0 mi Calm Calm - N/A   Clear
1:15 AM 64.4 °F - 55.4 °F 73% 29.91 in 10.0 mi NNW 3.5 mph - N/A   Clear
1:35 AM 62.6 °F - 55.4 °F 77% 29.91 in 10.0 mi Calm Calm - N/A   Clear
1:55 AM 60.8 °F - 55.4 °F 82% 29.91 in 10.0 mi Calm Calm - N/A   Clear
2:15 AM 62.6 °F - 55.4 °F 77% 29.91 in 10.0 mi North 3.5 mph - N/A   Clear
2:35 AM 62.6 °F - 55.4 °F 77% 29.91 in 10.0 mi Calm Calm - N/A   Clear
2:55 AM 59.0 °F - 55.4 °F 88% 29.91 in 10.0 mi Calm Calm - N/A   Clear
3:15 AM 60.8 °F - 55.4 °F 82% 29.91 in 10.0 mi Calm Calm - N/A   Clear
3:35 AM 59.0 °F - 55.4 °F 88% 29.91 in 10.0 mi Calm Calm - N/A   Clear
3:55 AM 60.8 °F - 55.4 °F 82% 29.90 in 10.0 mi Calm Calm - N/A   Clear
4:15 AM 62.6 °F - 55.4 °F 77% 29.91 in 10.0 mi Calm Calm - N/A   Clear
4:35 AM 59.0 °F - 55.4 °F 88% 29.91 in 10.0 mi Calm Calm - N/A   Clear
4:55 AM 59.0 °F - 55.4 °F 88% 29.91 in 10.0 mi Calm Calm - N/A   Clear
5:15 AM 59.0 °F - 55.4 °F 88% 29.91 in 10.0 mi Calm Calm - N/A   Clear
5:35 AM 55.4 °F - 55.4 °F 100% 29.91 in 10.0 mi ENE 3.5 mph - N/A   Clear
5:55 AM 57.2 °F - 55.4 °F 94% 29.91 in 10.0 mi Calm Calm - N/A   Clear
6:15 AM 59.0 °F - 55.4 °F 88% 29.91 in 10.0 mi Calm Calm - N/A   Clear
6:35 AM 60.8 °F - 55.4 °F 82% 29.91 in 10.0 mi Calm Calm - N/A   Clear
6:55 AM 60.8 °F - 57.2 °F 88% 29.91 in 10.0 mi Calm Calm - N/A   Clear
7:15 AM 62.6 °F - 57.2 °F 82% 29.91 in 10.0 mi Calm Calm - N/A   Clear
7:35 AM 66.2 °F - 55.4 °F 68% 29.91 in 10.0 mi Calm Calm - N/A   Clear
7:55 AM 68.0 °F - 55.4 °F 64% 29.92 in 10.0 mi Calm Calm - N/A   Clear
8:15 AM 69.8 °F - 55.4 °F 60% 29.92 in 10.0 mi SSW 3.5 mph - N/A   Clear
8:35 AM 71.6 °F - 55.4 °F 57% 29.92 in 10.0 mi Calm Calm - N/A   Clear
8:55 AM 73.4 °F - 55.4 °F 53% 29.92 in 10.0 mi Calm Calm - N/A   Clear
9:15 AM 77.0 °F - 55.4 °F 47% 29.91 in 10.0 mi Calm Calm - N/A   Clear
9:35 AM 78.8 °F - 55.4 °F 44% 29.91 in 10.0 mi SSE 3.5 mph - N/A   Clear
9:55 AM 80.6 °F 80.5 °F 55.4 °F 42% 29.91 in 10.0 mi Calm Calm - N/A   Clear
10:15 AM 82.4 °F 81.7 °F 55.4 °F 39% 29.90 in 10.0 mi ESE 3.5 mph - N/A Rain Light Rain
10:35 AM 86.0 °F 84.9 °F 57.2 °F 37% 29.90 in - SSW 3.5 mph - N/A Rain Light Rain
10:55 AM 87.8 °F 86.1 °F 55.4 °F 33% 29.90 in - SSE 3.5 mph - N/A Rain Light Rain
11:15 AM 89.6 °F 88.1 °F 57.2 °F 33% 29.90 in - Calm Calm - N/A Rain Light Rain
11:35 AM 89.6 °F 88.9 °F 59.0 °F 36% 29.90 in - Calm Calm - N/A Rain Light Rain
11:55 AM 91.4 °F 89.9 °F 57.2 °F 31% 29.89 in - ESE 4.6 mph - N/A Rain Light Rain
12:15 PM 93.2 °F 92.6 °F 59.0 °F 32% 29.89 in - ESE 6.9 mph - N/A Rain Light Rain
12:35 PM 95.0 °F 95.2 °F 60.8 °F 32% 29.88 in - SE 6.9 mph - N/A Rain Light Rain
12:55 PM 95.0 °F 94.4 °F 59.0 °F 30% 29.87 in - SE 6.9 mph - N/A Rain Light Rain
1:15 PM 95.0 °F 94.4 °F 59.0 °F 30% 29.87 in - SE 8.1 mph - N/A Rain Light Rain
1:35 PM 96.8 °F 95.8 °F 57.2 °F 27% 29.86 in - SSE 4.6 mph - N/A Rain Light Rain
1:55 PM 98.6 °F 97.6 °F 57.2 °F 25% 29.85 in - SSE 4.6 mph - N/A Rain Light Rain
2:15 PM 100.4 °F 99.7 °F 57.2 °F 24% 29.84 in - SE 5.8 mph - N/A   Clear
2:35 PM 100.4 °F 100.2 °F 59.0 °F 25% 29.84 in - South 5.8 mph - N/A   Clear
2:55 PM 100.4 °F 98.8 °F 55.4 °F 22% 29.83 in - SW 15.0 mph - N/A   Clear
3:15 PM 100.4 °F 98.4 °F 53.6 °F 21% 29.83 in - SW 9.2 mph 21.9 mph N/A   Clear
3:35 PM 102.2 °F 100.9 °F 55.4 °F 21% 29.82 in - West 6.9 mph 16.1 mph N/A   Clear
3:55 PM 100.4 °F 98.8 °F 55.4 °F 22% 29.82 in - West 8.1 mph - N/A   Clear
4:15 PM 100.4 °F 98.8 °F 55.4 °F 22% 29.82 in - WSW 13.8 mph - N/A   Clear
4:35 PM 100.4 °F 98.8 °F 55.4 °F 22% 29.81 in - West 10.4 mph - N/A   Clear
4:55 PM 98.6 °F 97.2 °F 55.4 °F 24% 29.81 in - WSW 15.0 mph - N/A   Clear
5:15 PM 96.8 °F 95.1 °F 55.4 °F 25% 29.80 in - SW 16.1 mph - N/A   Clear
5:35 PM 95.0 °F 92.7 °F 53.6 °F 25% 29.80 in - SSW 12.7 mph 16.1 mph N/A   Clear
5:55 PM 95.0 °F - 51.8 °F 23% 29.79 in - South 8.1 mph - N/A   Clear
6:15 PM 95.0 °F - 51.8 °F 23% 29.78 in - South 11.5 mph - N/A   Clear
6:35 PM 95.0 °F - 51.8 °F 23% 29.78 in - South 8.1 mph - N/A   Clear
6:55 PM 93.2 °F - 51.8 °F 24% 29.78 in - SSE 5.8 mph - N/A   Clear
7:15 PM 91.4 °F 89.1 °F 53.6 °F 28% 29.78 in - ESE 3.5 mph - N/A Rain Light Rain
7:35 PM 89.6 °F 87.3 °F 53.6 °F 29% 29.78 in - SE 4.6 mph - N/A   Clear
7:55 PM 87.8 °F 85.7 °F 53.6 °F 31% 29.78 in - Calm Calm - N/A   Clear
8:15 PM 84.2 °F 82.8 °F 53.6 °F 35% 29.78 in - SE 6.9 mph - N/A   Clear
8:35 PM 82.4 °F 81.4 °F 53.6 °F 37% 29.79 in - SE 6.9 mph - N/A   Clear
8:55 PM 80.6 °F 80.5 °F 55.4 °F 42% 29.80 in 10.0 mi ESE 5.8 mph - N/A   Clear
9:15 PM 77.0 °F - 55.4 °F 47% 29.81 in 10.0 mi East 6.9 mph - N/A   Clear
9:35 PM 73.4 °F - 55.4 °F 53% 29.82 in 10.0 mi Calm Calm - N/A   Clear
9:55 PM 71.6 °F - 55.4 °F 57% 29.82 in 10.0 mi NNE 6.9 mph - N/A   Clear
10:15 PM 69.8 °F - 55.4 °F 60% 29.83 in 10.0 mi NNE 4.6 mph - N/A   Clear
10:35 PM 68.0 °F - 55.4 °F 64% 29.83 in 10.0 mi North 4.6 mph - N/A   Clear
10:55 PM 66.2 °F - 55.4 °F 68% 29.84 in 10.0 mi North 6.9 mph - N/A   Clear
11:15 PM 66.2 °F - 55.4 °F 68% 29.84 in 10.0 mi North 4.6 mph - N/A   Clear
11:35 PM 64.4 °F - 55.4 °F 73% 29.84 in 10.0 mi NNE 5.8 mph - N/A   Clear
11:55 PM 64.4 °F - 55.4 °F 73% 29.83 in 10.0 mi NNE 6.9 mph - N/A   Clear